Skillman, NJ (08558)

8:34 AM EDT on August 22, 2014 (GMT -0400)
Country Cabinet Shop | Change Station
CLOSE
Current Station
Personal Weather Station
Location: Skillman, NJ
Elevation: 119 ft
Nearby Weather Stations

Elev 119 ft 40.42 °N, 74.70 °W | Updated 16 seconds ago

Mostly Cloudy
Mostly Cloudy
67.2 °F
Feels Like 67.2 °F
N
0.0
Wind Variable Wind from NNE
Gusts 3.0 mph

Today
High -- | Low -- °F
--% Chance of Precip.
Yesterday
High -- | Low -- °F
Precip. -- in
6:16 AM 7:46 PM
Waning Crescent, 8% visible
Pressure 30.01 in
Visibility 10.0 miles
Clouds Few 700 ft
Mostly Cloudy 1400 ft
Dew Point 66 °F
Humidity 96%
Rainfall 0.33 in
Snow Depth Not available.
UV 1 out of 12
Pollen 5.90 out of 12
Air Quality Not available.
Flu Activity Not available.
SPECI KTTN 221218Z 00000KT 10SM FEW007 BKN014 20/18 A3001 RMK AO2 T02000178

More Conditions Fewer Conditions

Pressure 30.01 in
Visibility 10.0 miles
Clouds Few 700 ft
Mostly Cloudy 1400 ft
Dew Point 66 °F
Humidity 96%
Rainfall 0.33 in
Snow Depth Not available.
UV 1 out of 12
Pollen 5.90 out of 12
Air Quality Not available.
Flu Activity Not available.
SPECI KTTN 221218Z 00000KT 10SM FEW007 BKN014 20/18 A3001 RMK AO2 T02000178

More Conditions Fewer Conditions

10-Day Weather Forecast

Almanac

Astronomy

Aug. 22, 2014 Rise Set
Actual Time 6:16 AM EDT 7:46 PM EDT
Civil Twilight 5:47 AM EDT 8:14 PM EDT
Nautical Twilight 5:13 AM EDT 8:49 PM EDT
Astronomical Twilight 4:36 AM EDT 9:25 PM EDT
Moon 3:36 AM EDT 5:53 PM EDT
Length of Visible Light 14h 26m
Length of Day
13h 29m
Tomorrow will be 2m 28s shorter.
Waning Crescent, 8% of the Moon is Illuminated
Today
Waning Crescent
Aug 25
New
Sep 2
First Quarter
Sep 8
Full
Sep 15
Last Quarter

Today's Extremes

State Highs State Lows

Community

WunderPhotos

Upload Photos

1,746,158 photos uploaded!

WunderBlogs® & News

Nearby

Snow Depth

Station Depth Elevation
No new snow has been reported.

Earthquake Activity

City Distance Mag. Time & Date
No recent earthquake activity has been reported nearby.
Minimum magnitude displayed is 2.5.

Coastal Water Temperatures

Place Temperature
Sandy Hook, NJ 73.9 °F
The Battery, NY 73.0 °F
Bergen Point West Reach, NJ 73.9 °F
Kings Point, NY 73.0 °F

Nearby Weather Stations